createdAt,value
2017-06-12T00:00:58.178Z,21.52
2017-06-12T00:02:13.128Z,21.47
2017-06-12T00:02:58.535Z,21.46
2017-06-12T00:03:58.565Z,21.54
2017-06-12T00:05:13.210Z,21.58
2017-06-12T00:05:58.621Z,21.61
2017-06-12T00:06:58.644Z,21.49
2017-06-12T00:07:58.671Z,21.37
2017-06-12T00:08:58.700Z,21.37
2017-06-12T00:09:58.725Z,21.32
2017-06-12T00:10:58.753Z,21.4
2017-06-12T00:11:58.778Z,21.21
2017-06-12T00:12:58.806Z,21.12
2017-06-12T00:13:58.835Z,21.14
2017-06-12T00:14:58.857Z,21.09
2017-06-12T00:16:58.911Z,21.04
2017-06-12T00:17:58.942Z,21.1
2017-06-12T00:18:58.965Z,21.06
2017-06-12T00:19:58.994Z,21.16
2017-06-12T00:21:13.638Z,21.29
2017-06-12T00:21:59.048Z,21.27
2017-06-12T00:22:59.071Z,21.34
2017-06-12T00:23:58.798Z,21.37
2017-06-12T00:24:59.128Z,21.34
2017-06-12T00:25:59.152Z,21.38
2017-06-12T00:26:59.182Z,21.31
2017-06-12T00:27:59.212Z,21.29
2017-06-12T00:29:59.262Z,21.19
2017-06-12T00:30:58.682Z,21.22
2017-06-12T00:31:59.315Z,21.28
2017-06-12T00:32:59.342Z,21.32
2017-06-12T00:33:59.369Z,21.32
2017-06-12T00:34:59.393Z,21.35
2017-06-12T00:35:59.422Z,21.38
2017-06-12T00:37:14.067Z,21.44
2017-06-12T00:37:59.170Z,21.35
2017-06-12T00:38:59.502Z,21.34
2017-06-12T00:39:59.528Z,21.37
2017-06-12T00:40:59.556Z,21.29
2017-06-12T00:41:59.582Z,21.24
2017-06-12T00:42:59.307Z,21.24
2017-06-12T00:43:59.641Z,21.25
2017-06-12T00:44:59.663Z,21.24
2017-06-12T00:45:59.693Z,21.19
2017-06-12T00:46:59.719Z,21.14
2017-06-12T00:49:59.798Z,21.14
2017-06-12T00:50:59.527Z,21.21
2017-06-12T00:51:59.547Z,21.13
2017-06-12T00:53:14.495Z,21.19
2017-06-12T00:53:59.905Z,21.14
2017-06-12T00:54:59.626Z,21.07
2017-06-12T00:55:59.653Z,21.04
2017-06-12T00:56:59.681Z,20.99
2017-06-12T00:58:00.009Z,20.92
2017-06-12T00:59:00.037Z,20.97
2017-06-12T01:00:00.065Z,20.88
2017-06-12T01:01:00.091Z,20.98
2017-06-12T01:02:00.117Z,20.92
2017-06-12T01:03:00.143Z,20.88
2017-06-12T01:03:59.866Z,20.89
2017-06-12T01:05:14.512Z,20.89
2017-06-12T01:06:14.843Z,20.85
2017-06-12T01:07:00.250Z,20.88
2017-06-12T01:08:14.895Z,20.91
2017-06-12T01:09:00.308Z,20.88
2017-06-12T01:10:00.329Z,20.82
2017-06-12T01:11:00.357Z,20.85
2017-06-12T01:12:00.384Z,20.82
2017-06-12T01:13:00.410Z,20.82
2017-06-12T01:14:00.436Z,20.8
2017-06-12T01:15:00.462Z,20.87
2017-06-12T01:16:00.188Z,20.85
2017-06-12T01:17:00.536Z,20.87
2017-06-12T01:18:00.543Z,20.85
2017-06-12T01:19:15.190Z,20.82
2017-06-12T01:20:00.596Z,20.79
2017-06-12T01:21:00.628Z,20.77
2017-06-12T01:22:15.268Z,20.79
2017-06-12T01:23:00.676Z,20.79
2017-06-12T01:24:00.703Z,20.88
2017-06-12T01:25:00.430Z,20.85
2017-06-12T01:26:00.756Z,20.91
2017-06-12T01:27:00.782Z,20.94
2017-06-12T01:28:00.810Z,20.95
2017-06-12T01:29:00.835Z,20.97
2017-06-12T01:30:00.558Z,20.89
2017-06-12T01:31:00.892Z,20.87
2017-06-12T01:32:00.915Z,20.91
2017-06-12T01:33:00.642Z,20.92
2017-06-12T01:36:01.021Z,20.82
2017-06-12T01:37:01.049Z,20.85
2017-06-12T01:38:01.126Z,20.79
2017-06-12T01:39:01.102Z,20.87
2017-06-12T01:40:15.746Z,20.85
2017-06-12T01:41:01.155Z,20.84
2017-06-12T01:42:01.185Z,20.84
2017-06-12T01:43:01.207Z,20.89
2017-06-12T01:44:00.932Z,20.89
2017-06-12T01:45:01.264Z,20.91
2017-06-12T01:46:00.984Z,20.85
2017-06-12T01:47:01.315Z,20.85
2017-06-12T01:48:01.038Z,20.97
2017-06-12T01:49:01.368Z,20.91
2017-06-12T01:51:01.423Z,20.82
2017-06-12T01:52:01.144Z,20.91
2017-06-12T01:53:01.491Z,20.87
2017-06-12T01:54:15.818Z,20.8
2017-06-12T01:55:01.528Z,20.88
2017-06-12T01:56:16.176Z,20.76
2017-06-12T01:57:01.277Z,20.72
2017-06-12T01:58:01.304Z,20.61
2017-06-12T01:59:01.329Z,20.69
2017-06-12T02:00:01.666Z,20.67
2017-06-12T02:01:01.384Z,20.77
2017-06-12T02:02:01.712Z,20.77
2017-06-12T02:03:01.739Z,20.69
2017-06-12T02:04:01.766Z,20.7
2017-06-12T02:06:01.817Z,20.73
2017-06-12T02:08:01.884Z,20.67
2017-06-12T02:09:16.516Z,20.64
2017-06-12T02:10:01.928Z,20.66
2017-06-12T02:11:01.952Z,20.64
2017-06-12T02:12:16.597Z,20.58
2017-06-12T02:13:02.004Z,20.62
2017-06-12T02:14:02.034Z,20.59
2017-06-12T02:15:02.062Z,20.69
2017-06-12T02:16:02.085Z,20.57
2017-06-12T02:17:02.111Z,20.58
2017-06-12T02:18:02.137Z,20.64
2017-06-12T02:19:02.164Z,20.72
2017-06-12T02:20:02.189Z,20.69
2017-06-12T02:21:02.216Z,20.61
2017-06-12T02:23:02.270Z,20.51
2017-06-12T02:24:16.915Z,20.58
2017-06-12T02:25:02.323Z,20.61
2017-06-12T02:26:02.350Z,20.61
2017-06-12T02:27:02.376Z,20.58
2017-06-12T02:28:17.019Z,20.57
2017-06-12T02:29:02.428Z,20.51
2017-06-12T02:30:02.455Z,20.52
2017-06-12T02:31:02.481Z,20.55
2017-06-12T02:32:02.507Z,20.51
2017-06-12T02:33:02.536Z,20.58
2017-06-12T02:34:02.561Z,20.62
2017-06-12T02:35:02.284Z,20.59
2017-06-12T02:36:02.615Z,20.58
2017-06-12T02:37:02.639Z,20.59
2017-06-12T02:39:02.692Z,20.61
2017-06-12T02:40:02.723Z,20.55
2017-06-12T02:41:02.746Z,20.58
2017-06-12T02:42:02.472Z,20.51
2017-06-12T02:43:17.417Z,20.62
2017-06-12T02:44:02.522Z,20.58
2017-06-12T02:45:02.916Z,20.59
2017-06-12T02:46:02.277Z,20.51
2017-06-12T02:47:02.601Z,20.58
2017-06-12T02:48:02.630Z,20.51
2017-06-12T02:49:02.653Z,20.42
2017-06-12T02:50:02.678Z,20.47
2017-06-12T02:51:02.708Z,20.54
2017-06-12T02:55:03.116Z,20.55
2017-06-12T02:56:02.536Z,20.61
2017-06-12T02:57:17.787Z,20.55
2017-06-12T02:58:03.198Z,20.59
2017-06-12T02:59:03.222Z,20.59
2017-06-12T03:00:03.249Z,20.58
2017-06-12T03:01:03.275Z,20.57
2017-06-12T03:02:03.301Z,20.59
2017-06-12T03:03:03.325Z,20.61
2017-06-12T03:04:03.354Z,20.62
2017-06-12T03:05:03.379Z,20.61
2017-06-12T03:06:03.410Z,20.55
2017-06-12T03:07:03.434Z,20.61
2017-06-12T03:08:03.461Z,20.59
2017-06-12T03:10:03.512Z,20.55
2017-06-12T03:11:03.540Z,20.64
2017-06-12T03:12:18.184Z,20.72
2017-06-12T03:13:03.593Z,20.67
2017-06-12T03:14:03.619Z,20.72
2017-06-12T03:15:18.263Z,20.66
2017-06-12T03:16:03.678Z,20.62
2017-06-12T03:17:03.697Z,20.7
2017-06-12T03:18:03.725Z,20.69
2017-06-12T03:19:03.753Z,20.64
2017-06-12T03:20:03.782Z,20.61
2017-06-12T03:21:03.811Z,20.66
2017-06-12T03:23:03.860Z,20.54
2017-06-12T03:24:03.883Z,20.59
2017-06-12T03:25:03.909Z,20.61
2017-06-12T03:27:03.963Z,20.59
2017-06-12T03:28:18.607Z,20.58
2017-06-12T03:29:18.633Z,20.55
2017-06-12T03:30:04.046Z,20.67
2017-06-12T03:31:18.690Z,20.59
2017-06-12T03:32:04.094Z,20.59
2017-06-12T03:33:04.122Z,20.62
2017-06-12T03:34:04.147Z,20.61
2017-06-12T03:35:04.173Z,20.69
2017-06-12T03:36:04.199Z,20.7
2017-06-12T03:37:04.229Z,20.7
2017-06-12T03:38:04.253Z,20.82
2017-06-12T03:39:04.300Z,20.76
2017-06-12T03:40:04.308Z,20.7
2017-06-12T03:41:04.335Z,20.69
2017-06-12T03:42:04.055Z,20.76
2017-06-12T03:43:04.083Z,20.77
2017-06-12T03:44:04.411Z,20.85
2017-06-12T03:45:04.440Z,20.89
2017-06-12T03:46:04.465Z,20.91
2017-06-12T03:47:19.110Z,20.94
2017-06-12T03:48:04.517Z,20.97
2017-06-12T03:49:04.242Z,21.06
2017-06-12T03:50:04.268Z,21.13
2017-06-12T03:51:04.598Z,21.07
2017-06-12T03:52:04.625Z,21.19
2017-06-12T03:53:04.348Z,21.16
2017-06-12T03:54:04.677Z,21.27
2017-06-12T03:55:04.704Z,21.28
2017-06-12T03:56:04.731Z,21.31
2017-06-12T03:57:04.456Z,21.5
2017-06-12T03:59:04.202Z,21.5
2017-06-12T04:00:04.535Z,21.49
2017-06-12T04:01:04.863Z,21.46
2017-06-12T04:02:19.508Z,21.62
2017-06-12T04:03:19.535Z,21.5
2017-06-12T04:04:04.944Z,21.56
2017-06-12T04:05:04.667Z,21.46
2017-06-12T04:06:04.693Z,21.5
2017-06-12T04:08:05.050Z,21.61
2017-06-12T04:09:05.078Z,21.59
2017-06-12T04:10:05.104Z,21.54
2017-06-12T04:11:05.156Z,21.59
2017-06-12T04:12:05.157Z,21.54
2017-06-12T04:13:19.806Z,21.68
2017-06-12T04:14:05.212Z,21.67
2017-06-12T04:15:19.554Z,21.71
2017-06-12T04:16:05.266Z,21.71
2017-06-12T04:17:05.293Z,21.67
2017-06-12T04:18:19.938Z,21.99
2017-06-12T04:19:05.348Z,21.86
2017-06-12T04:20:05.376Z,21.8
2017-06-12T04:21:05.406Z,21.82
2017-06-12T04:22:05.427Z,21.77
2017-06-12T04:23:05.458Z,21.77
2017-06-12T04:24:05.481Z,21.74
2017-06-12T04:25:05.512Z,21.75
2017-06-12T04:26:05.537Z,21.65
2017-06-12T04:27:05.563Z,21.68
2017-06-12T04:29:05.618Z,21.68
2017-06-12T04:30:05.341Z,21.61
2017-06-12T04:31:05.393Z,21.62
2017-06-12T04:32:05.705Z,21.59
2017-06-12T04:33:05.725Z,21.56
2017-06-12T04:34:05.752Z,21.59
2017-06-12T04:35:05.475Z,21.64
2017-06-12T04:36:05.805Z,21.53
2017-06-12T04:37:05.535Z,21.5
2017-06-12T04:38:05.858Z,21.5
2017-06-12T04:39:05.584Z,21.42
2017-06-12T04:41:05.941Z,21.58
2017-06-12T04:42:05.362Z,21.58
2017-06-12T04:43:05.996Z,21.61
2017-06-12T04:44:05.720Z,21.58
2017-06-12T04:45:06.050Z,21.53
2017-06-12T04:46:20.694Z,21.53
2017-06-12T04:47:06.103Z,21.59
2017-06-12T04:48:20.747Z,21.49
2017-06-12T04:49:06.156Z,21.59
2017-06-12T04:50:20.800Z,21.56
2017-06-12T04:51:05.904Z,21.54
2017-06-12T04:52:06.239Z,21.52
2017-06-12T04:53:06.264Z,21.49
2017-06-12T04:54:06.290Z,21.46
2017-06-12T04:55:06.318Z,21.47
2017-06-12T04:56:06.378Z,21.52
2017-06-12T04:57:06.370Z,21.54
2017-06-12T04:58:06.094Z,21.56
2017-06-12T04:59:06.424Z,21.53
2017-06-12T05:00:06.448Z,21.62
2017-06-12T05:01:06.479Z,21.56
2017-06-12T05:02:21.123Z,21.77
2017-06-12T05:03:21.149Z,21.77
2017-06-12T05:04:06.560Z,21.72
2017-06-12T05:05:06.584Z,21.77
2017-06-12T05:06:21.232Z,21.72
2017-06-12T05:07:06.637Z,21.79
2017-06-12T05:08:06.667Z,21.88
2017-06-12T05:09:06.690Z,21.94
2017-06-12T05:10:06.719Z,22.06
2017-06-12T05:11:06.745Z,21.98
2017-06-12T05:12:06.792Z,21.91
2017-06-12T05:13:06.797Z,21.86
2017-06-12T05:14:06.828Z,21.75
2017-06-12T05:15:06.851Z,21.79
2017-06-12T05:16:06.880Z,21.67
2017-06-12T05:17:06.906Z,21.69
2017-06-12T05:18:06.933Z,21.71
2017-06-12T05:19:06.967Z,21.83
2017-06-12T05:20:06.990Z,21.84
2017-06-12T05:21:07.013Z,21.92
2017-06-12T05:22:21.658Z,22
2017-06-12T05:23:07.066Z,22.07
2017-06-12T05:24:07.093Z,22.05
2017-06-12T05:25:07.120Z,22.05
2017-06-12T05:26:07.151Z,22.07
2017-06-12T05:27:06.871Z,22.03
2017-06-12T05:28:07.502Z,22.15
2017-06-12T05:29:06.926Z,22.17
2017-06-12T05:30:06.952Z,22.35
2017-06-12T05:31:07.282Z,22.51
2017-06-12T05:32:21.978Z,23
2017-06-12T05:34:21.982Z,23.33
2017-06-12T05:35:07.390Z,23.42
2017-06-12T05:36:07.425Z,23.31
2017-06-12T05:37:22.063Z,23.31
2017-06-12T05:38:22.092Z,23.23
2017-06-12T05:39:07.501Z,23.31
2017-06-12T05:40:07.532Z,23.38
2017-06-12T05:41:07.560Z,23.46
2017-06-12T05:42:07.583Z,23.31
2017-06-12T05:43:07.611Z,23.33
2017-06-12T05:44:07.639Z,23.33
2017-06-12T05:45:07.363Z,23.31
2017-06-12T05:46:07.703Z,23.23
2017-06-12T05:47:07.728Z,23.47
2017-06-12T05:48:07.748Z,23.43
2017-06-12T05:50:07.503Z,23.27
2017-06-12T05:51:07.836Z,23.2
2017-06-12T05:52:07.558Z,23.17
2017-06-12T05:53:22.508Z,22.92
2017-06-12T05:54:07.917Z,22.95
2017-06-12T05:55:07.946Z,22.88
2017-06-12T05:56:07.669Z,22.8
2017-06-12T05:57:08.001Z,22.94
2017-06-12T05:58:08.027Z,22.97
2017-06-12T05:59:08.056Z,22.94
2017-06-12T06:00:07.828Z,23.05
2017-06-12T06:01:08.162Z,23.05
2017-06-12T06:03:08.164Z,23.17
2017-06-12T06:04:22.813Z,23.01
2017-06-12T06:05:08.222Z,22.97
2017-06-12T06:06:08.249Z,22.92
2017-06-12T06:07:07.978Z,22.8
2017-06-12T06:08:08.306Z,22.82
2017-06-12T06:09:08.330Z,22.83
2017-06-12T06:10:08.367Z,22.68
2017-06-12T06:11:08.083Z,22.55
2017-06-12T06:12:08.111Z,22.72
2017-06-12T06:13:08.490Z,22.68
2017-06-12T06:14:08.469Z,22.64
2017-06-12T06:15:08.495Z,22.62
2017-06-12T06:16:08.527Z,22.64
2017-06-12T06:17:08.552Z,22.68
2017-06-12T06:18:08.580Z,22.68
2017-06-12T06:19:08.609Z,22.86
2017-06-12T06:20:08.634Z,23.04
2017-06-12T06:21:08.664Z,23.02
2017-06-12T06:22:08.694Z,23.32
2017-06-12T06:23:08.719Z,23.6
2017-06-12T06:24:08.743Z,23.7
2017-06-12T06:25:23.391Z,23.84
2017-06-12T06:26:08.800Z,23.98
2017-06-12T06:27:08.828Z,24.67
2017-06-12T06:28:08.854Z,25.2
2017-06-12T06:29:08.884Z,25.03
2017-06-12T06:30:08.911Z,24.81
2017-06-12T06:31:08.638Z,24.55
2017-06-12T06:32:08.968Z,24.35
2017-06-12T06:33:08.997Z,24.16
2017-06-12T06:35:09.054Z,23.63
2017-06-12T06:36:09.082Z,23.75
2017-06-12T06:37:09.115Z,23.8
2017-06-12T06:38:09.140Z,23.75
2017-06-12T06:39:23.786Z,23.85
2017-06-12T06:40:09.245Z,23.91
2017-06-12T06:41:23.844Z,23.65
2017-06-12T06:42:09.251Z,23.88
2017-06-12T06:43:09.280Z,23.97
2017-06-12T06:44:09.308Z,24.1
2017-06-12T06:45:09.338Z,24.02
2017-06-12T06:46:09.364Z,23.79
2017-06-12T06:47:09.395Z,23.72
2017-06-12T06:48:09.421Z,23.51
2017-06-12T06:49:09.451Z,23.7
2017-06-12T06:50:09.478Z,23.6
2017-06-12T06:52:09.535Z,24.03
2017-06-12T06:53:09.563Z,24.27
2017-06-12T06:54:24.210Z,24.43
2017-06-12T06:55:09.622Z,24.61
2017-06-12T06:56:09.649Z,25.03
2017-06-12T06:57:24.297Z,25.23
2017-06-12T06:58:09.705Z,25.35
2017-06-12T06:59:09.735Z,26.07
2017-06-12T07:00:09.768Z,26.44
2017-06-12T07:01:09.796Z,26.94
2017-06-12T07:02:09.519Z,27.1
2017-06-12T07:03:09.854Z,27.79
2017-06-12T07:04:09.886Z,27.09
2017-06-12T07:05:09.914Z,26.8
2017-06-12T07:08:24.629Z,27.87
2017-06-12T07:10:24.688Z,28.04
2017-06-12T07:11:10.104Z,28.17
2017-06-12T07:12:24.750Z,28.66
2017-06-12T07:13:24.783Z,28.62
2017-06-12T07:14:10.194Z,28.41
2017-06-12T07:15:10.247Z,27.82
2017-06-12T07:16:10.258Z,28.11
2017-06-12T07:17:24.910Z,28.34
2017-06-12T07:18:10.325Z,28.59
2017-06-12T07:19:10.355Z,28.77
2017-06-12T07:21:10.420Z,29.06
2017-06-12T07:24:10.518Z,29.31
2017-06-12T07:25:10.553Z,29.8
2017-06-12T07:26:25.205Z,29.55
2017-06-12T07:27:10.624Z,29.8
2017-06-12T07:28:25.273Z,30.32
2017-06-12T07:29:10.686Z,30.45
2017-06-12T07:30:10.723Z,30.7
2017-06-12T07:31:25.624Z,31.56
2017-06-12T07:32:10.790Z,31.31
2017-06-12T07:33:10.824Z,31.61
2017-06-12T07:34:10.860Z,31.65
2017-06-12T07:35:10.590Z,32.1
2017-06-12T07:36:10.628Z,31.01
2017-06-12T07:37:10.659Z,31.17
2017-06-12T07:38:10.694Z,31.36
2017-06-12T07:39:25.352Z,30.45
2017-06-12T07:40:11.068Z,30.22
2017-06-12T07:41:25.724Z,30.75
2017-06-12T07:42:11.138Z,30.16
2017-06-12T07:43:11.174Z,29.49
2017-06-12T07:44:10.602Z,28.67
2017-06-12T07:45:11.246Z,28.19
2017-06-12T07:46:11.277Z,28.62
2017-06-12T07:47:11.326Z,29.42
2017-06-12T07:48:11.352Z,29.94
2017-06-12T07:49:11.382Z,29.9
2017-06-12T07:50:11.111Z,30.47
2017-06-12T07:51:11.450Z,30.73
2017-06-12T07:52:11.180Z,30.65
2017-06-12T07:53:11.518Z,30.07
2017-06-12T07:55:11.588Z,31.29
2017-06-12T07:56:11.673Z,31.91
2017-06-12T07:57:11.658Z,31.66
2017-06-12T07:58:11.692Z,31.29
2017-06-12T07:59:26.346Z,31.58
2017-06-12T08:00:26.381Z,31.25
2017-06-12T08:01:11.798Z,29.76
2017-06-12T08:02:11.834Z,29.21
2017-06-12T08:03:11.866Z,29.02
2017-06-12T08:04:11.628Z,28.76
2017-06-12T08:05:12.137Z,28.59
2017-06-12T08:06:12.071Z,28.56
2017-06-12T08:07:12.004Z,28.89
2017-06-12T08:08:12.090Z,29.24
2017-06-12T08:09:12.073Z,29
2017-06-12T08:10:12.110Z,28.46
2017-06-12T08:11:12.143Z,28.37
2017-06-12T08:12:26.493Z,28.43
2017-06-12T08:13:12.413Z,28.27
2017-06-12T08:14:26.864Z,28.83
2017-06-12T08:15:12.278Z,29.02
2017-06-12T08:16:26.932Z,28.46
2017-06-12T08:17:12.345Z,28.19
2017-06-12T08:18:12.378Z,28.73
2017-06-12T08:19:12.414Z,29.52
2017-06-12T08:20:12.448Z,29.48
2017-06-12T08:21:12.178Z,28.7
2017-06-12T08:22:12.513Z,28.03
2017-06-12T08:23:12.549Z,27.69
2017-06-12T08:24:12.584Z,27.4
2017-06-12T08:25:12.614Z,27.41
2017-06-12T08:26:12.649Z,27.77
2017-06-12T08:27:12.683Z,28.44
2017-06-12T08:28:12.716Z,28.67
2017-06-12T08:29:12.752Z,29.41
2017-06-12T08:30:12.781Z,30.01
2017-06-12T08:31:12.818Z,30.31
2017-06-12T08:32:27.469Z,30.86
2017-06-12T08:33:12.887Z,30.8
2017-06-12T08:34:12.917Z,30.67
2017-06-12T08:35:12.981Z,30.11
2017-06-12T08:36:12.986Z,29.64
2017-06-12T08:37:13.019Z,29.05
2017-06-12T08:38:12.751Z,28.56
2017-06-12T08:39:13.087Z,27.97
2017-06-12T08:40:27.746Z,28.02
2017-06-12T08:41:13.153Z,28.4
2017-06-12T08:43:12.917Z,29.27
2017-06-12T08:45:27.907Z,29.52
2017-06-12T08:46:13.323Z,29.61
2017-06-12T08:47:13.355Z,30.15
2017-06-12T08:48:27.704Z,30.53
2017-06-12T08:49:13.524Z,30.54
2017-06-12T08:50:13.156Z,30.17
2017-06-12T08:51:13.539Z,30.38
2017-06-12T08:52:13.220Z,29.95
2017-06-12T08:53:13.557Z,29.86
2017-06-12T08:54:13.589Z,30.01
2017-06-12T08:55:13.320Z,30.16
2017-06-12T08:56:13.662Z,29.67
2017-06-12T08:58:13.425Z,30.07
2017-06-12T09:00:13.488Z,30.57
2017-06-12T09:01:13.575Z,31.09
2017-06-12T09:02:13.864Z,31.5
2017-06-12T09:03:28.516Z,31.02
2017-06-12T09:04:13.630Z,30.61
2017-06-12T09:05:13.660Z,30.75
2017-06-12T09:06:13.695Z,31.19
2017-06-12T09:07:14.035Z,31.34
2017-06-12T09:08:13.466Z,31.63
2017-06-12T09:09:13.796Z,31.73
2017-06-12T09:11:14.168Z,32.18
2017-06-12T09:12:13.899Z,31.92
2017-06-12T09:14:13.974Z,32.37
2017-06-12T09:15:14.304Z,32.11
2017-06-12T09:16:14.341Z,32.03
2017-06-12T09:17:14.378Z,31.76
2017-06-12T09:18:14.408Z,31.14
2017-06-12T09:19:14.443Z,30.29
2017-06-12T09:20:14.477Z,30.31
2017-06-12T09:21:14.512Z,30.58
2017-06-12T09:22:14.546Z,30.46
2017-06-12T09:23:14.578Z,30.76
2017-06-12T09:24:14.613Z,31.02
2017-06-12T09:25:14.345Z,31.07
2017-06-12T09:27:14.412Z,31.35
2017-06-12T09:29:14.784Z,31.41
2017-06-12T09:30:14.826Z,31.69
2017-06-12T09:32:29.203Z,32.15
2017-06-12T09:33:29.540Z,32.63
2017-06-12T09:34:14.955Z,32.59
2017-06-12T09:35:29.609Z,32.85
2017-06-12T09:36:15.021Z,32.5
2017-06-12T09:37:14.756Z,31.48
2017-06-12T09:38:14.790Z,31.51
2017-06-12T09:39:14.823Z,30.94
2017-06-12T09:40:15.159Z,30.29
2017-06-12T09:41:15.198Z,30.11
2017-06-12T09:42:14.925Z,30.01
2017-06-12T09:43:14.959Z,30.57
2017-06-12T09:44:15.295Z,31.2
2017-06-12T09:45:15.024Z,31.14
2017-06-12T09:46:15.362Z,30.32
2017-06-12T09:47:30.018Z,29.18
2017-06-12T09:48:15.433Z,29.41
2017-06-12T09:49:15.157Z,29.46
2017-06-12T09:50:15.193Z,29.15
2017-06-12T09:51:30.150Z,28.04
2017-06-12T09:52:15.562Z,28.09
2017-06-12T09:53:15.598Z,27.54
2017-06-12T09:54:15.931Z,27.67
2017-06-12T09:55:15.662Z,28.12
2017-06-12T09:56:15.697Z,28.76
2017-06-12T09:57:15.728Z,29.09
2017-06-12T09:58:15.766Z,29.51
2017-06-12T09:59:15.794Z,29.43
2017-06-12T10:01:15.556Z,28.98
2017-06-12T10:02:15.589Z,28.61
2017-06-12T10:03:15.926Z,28.33
2017-06-12T10:04:15.653Z,27.87
2017-06-12T10:05:15.988Z,27.47
2017-06-12T10:06:16.021Z,27.27
2017-06-12T10:07:30.674Z,27.4
2017-06-12T10:08:16.085Z,27.54
2017-06-12T10:09:16.115Z,27.36
2017-06-12T10:10:16.149Z,26.92
2017-06-12T10:11:16.181Z,26.47
2017-06-12T10:12:16.214Z,26.37
2017-06-12T10:13:16.247Z,26.4
2017-06-12T10:14:15.972Z,26.07
2017-06-12T10:15:16.306Z,26.01
2017-06-12T10:16:16.338Z,25.87
2017-06-12T10:17:16.373Z,25.67
2017-06-12T10:18:16.400Z,25.75
2017-06-12T10:20:31.081Z,25.91
2017-06-12T10:21:16.498Z,26.09
2017-06-12T10:22:31.143Z,26.32
2017-06-12T10:23:31.175Z,26.29
2017-06-12T10:24:16.586Z,26.39
2017-06-12T10:25:16.617Z,26.44
2017-06-12T10:26:16.649Z,26.43
2017-06-12T10:27:16.678Z,26.6
2017-06-12T10:28:16.712Z,26.99
2017-06-12T10:29:16.739Z,26.97
2017-06-12T10:30:16.770Z,26.69
2017-06-12T10:32:16.835Z,26.09
2017-06-12T10:33:16.862Z,26.15
2017-06-12T10:35:16.975Z,26.09
2017-06-12T10:36:31.574Z,26.02
2017-06-12T10:37:16.689Z,26.29
2017-06-12T10:38:31.635Z,26.33
2017-06-12T10:39:17.046Z,26.3
2017-06-12T10:41:17.106Z,26.43
2017-06-12T10:42:16.835Z,26.65
2017-06-12T10:43:17.168Z,26.65
2017-06-12T10:44:17.200Z,26.54
2017-06-12T10:45:17.234Z,26.77
2017-06-12T10:46:16.957Z,26.73
2017-06-12T10:47:16.987Z,26.69
2017-06-12T10:48:17.321Z,26.54
2017-06-12T10:50:17.385Z,26.63
2017-06-12T10:51:17.413Z,26.57
2017-06-12T10:52:32.063Z,26.4
2017-06-12T10:53:17.171Z,26.28
2017-06-12T10:54:17.504Z,26.18
2017-06-12T10:55:17.538Z,25.88
2017-06-12T10:56:17.565Z,26.17
2017-06-12T10:57:17.597Z,26.4
2017-06-12T10:58:17.626Z,26.52
2017-06-12T10:59:17.357Z,26.76
2017-06-12T11:00:17.689Z,27.02
2017-06-12T11:01:17.723Z,27.22
2017-06-12T11:02:17.748Z,27.04
2017-06-12T11:04:17.811Z,26.82
2017-06-12T11:06:17.870Z,26.97
2017-06-12T11:07:17.901Z,26.77
2017-06-12T11:08:17.931Z,26.48
2017-06-12T11:09:17.961Z,26.91
2017-06-12T11:10:32.612Z,27.06
2017-06-12T11:11:18.021Z,27.31
2017-06-12T11:12:18.052Z,27.29
2017-06-12T11:13:17.780Z,27.18
2017-06-12T11:14:18.113Z,27.07
2017-06-12T11:15:17.841Z,26.81
2017-06-12T11:16:18.175Z,26.8
2017-06-12T11:17:18.205Z,26.54
2017-06-12T11:19:18.265Z,26.82
2017-06-12T11:20:18.315Z,26.6
2017-06-12T11:22:18.357Z,26.33
2017-06-12T11:23:18.388Z,26.47
2017-06-12T11:24:18.424Z,26.63
2017-06-12T11:25:18.447Z,26.58
2017-06-12T11:26:32.794Z,26.67
2017-06-12T11:27:18.509Z,26.82
2017-06-12T11:28:18.236Z,26.76
2017-06-12T11:29:18.266Z,26.85
2017-06-12T11:30:18.297Z,27.04
2017-06-12T11:31:18.628Z,27.41
2017-06-12T11:32:18.662Z,27.55
2017-06-12T11:33:18.691Z,27.62
2017-06-12T11:34:33.346Z,27.65
2017-06-12T11:35:18.449Z,27.78
2017-06-12T11:36:18.477Z,27.65
2017-06-12T11:37:18.508Z,27.25
2017-06-12T11:38:18.844Z,27
2017-06-12T11:39:33.492Z,27.09
2017-06-12T11:40:18.905Z,27.22
2017-06-12T11:41:18.630Z,27.41
2017-06-12T11:42:33.582Z,27.4
2017-06-12T11:43:18.691Z,27.37
2017-06-12T11:44:18.721Z,27.43
2017-06-12T11:45:18.751Z,27.66
2017-06-12T11:46:18.784Z,27.34
2017-06-12T11:47:18.812Z,27.5
2017-06-12T11:48:18.842Z,27.41
2017-06-12T11:50:18.904Z,27.77
2017-06-12T11:51:19.236Z,27.94
2017-06-12T11:52:19.272Z,27.85
2017-06-12T11:53:19.296Z,27.79
2017-06-12T11:54:19.328Z,27.46
2017-06-12T11:55:19.358Z,26.87
2017-06-12T11:56:19.389Z,26.95
2017-06-12T11:57:19.449Z,27.1
2017-06-12T11:58:34.068Z,27.28
2017-06-12T11:59:19.179Z,27.4
2017-06-12T12:00:19.510Z,27.7
2017-06-12T12:01:19.542Z,27.88
2017-06-12T12:02:19.571Z,27.87
2017-06-12T12:03:19.602Z,27.79
2017-06-12T12:04:19.026Z,27.77
2017-06-12T12:05:19.661Z,27.66
2017-06-12T12:06:19.389Z,27.7
2017-06-12T12:09:19.786Z,27.25
2017-06-12T12:10:19.815Z,26.92
2017-06-12T12:11:34.463Z,26.55
2017-06-12T12:12:19.879Z,26.65
2017-06-12T12:13:34.525Z,26.3
2017-06-12T12:14:19.328Z,26.52
2017-06-12T12:15:19.664Z,26.57
2017-06-12T12:16:19.995Z,26.7
2017-06-12T12:17:19.420Z,27.09
2017-06-12T12:18:19.754Z,27.07
2017-06-12T12:19:20.088Z,27.24
2017-06-12T12:20:20.115Z,27
2017-06-12T12:21:20.148Z,26.95
2017-06-12T12:22:20.178Z,26.92
2017-06-12T12:25:34.584Z,26.91
2017-06-12T12:26:20.297Z,26.81
2017-06-12T12:27:20.332Z,26.55
2017-06-12T12:28:20.057Z,26.7
2017-06-12T12:29:20.388Z,26.18
2017-06-12T12:30:20.422Z,26.3
2017-06-12T12:31:20.448Z,26.23
2017-06-12T12:32:20.486Z,26.2
2017-06-12T12:33:20.509Z,25.9
2017-06-12T12:34:20.570Z,25.69
2017-06-12T12:35:20.571Z,25.91
2017-06-12T12:36:20.600Z,26.23
2017-06-12T12:37:20.325Z,26.05
2017-06-12T12:38:20.657Z,25.95
2017-06-12T12:40:35.341Z,26.29
2017-06-12T12:42:20.478Z,26.43
2017-06-12T12:43:20.813Z,26.6
2017-06-12T12:45:35.486Z,26.63
2017-06-12T12:46:20.899Z,26.8
2017-06-12T12:47:20.937Z,26.55
2017-06-12T12:48:20.960Z,26.43
2017-06-12T12:49:21.043Z,26.57
2017-06-12T12:50:21.020Z,26.52
2017-06-12T12:51:21.049Z,25.88
2017-06-12T12:52:20.775Z,25.94
2017-06-12T12:54:21.168Z,26.44
2017-06-12T12:55:21.166Z,26.45
2017-06-12T12:56:21.195Z,26.02
2017-06-12T12:57:21.227Z,26.3
2017-06-12T12:58:35.876Z,26.21
2017-06-12T12:59:35.904Z,26.29
2017-06-12T13:00:21.011Z,26.2
2017-06-12T13:01:35.966Z,26.4
2017-06-12T13:02:21.376Z,26.36
2017-06-12T13:03:21.405Z,26.44
2017-06-12T13:04:21.434Z,26.29
2017-06-12T13:05:21.463Z,26.09
2017-06-12T13:06:21.493Z,26.07
2017-06-12T13:07:21.522Z,26.07
2017-06-12T13:08:21.553Z,26.23
2017-06-12T13:10:21.612Z,26.33
2017-06-12T13:12:21.721Z,26.1
2017-06-12T13:13:36.322Z,25.87
2017-06-12T13:14:36.045Z,25.82
2017-06-12T13:15:36.377Z,25.75
2017-06-12T13:16:21.791Z,25.69
2017-06-12T13:17:36.437Z,25.6
2017-06-12T13:18:21.848Z,25.32
2017-06-12T13:19:21.876Z,25.2
2017-06-12T13:20:21.907Z,25.14
2017-06-12T13:21:21.935Z,24.88
2017-06-12T13:22:21.967Z,24.98
2017-06-12T13:23:21.997Z,24.73
2017-06-12T13:24:22.024Z,24.31
2017-06-12T13:25:22.050Z,24.42
2017-06-12T13:26:21.777Z,24.43
2017-06-12T13:29:22.169Z,24.98
2017-06-12T13:30:21.895Z,24.73
2017-06-12T13:31:21.927Z,24.78
2017-06-12T13:32:22.260Z,24.65
2017-06-12T13:33:36.904Z,24.98
2017-06-12T13:34:22.342Z,25.08
2017-06-12T13:35:22.343Z,25.08
2017-06-12T13:36:22.373Z,25.14
2017-06-12T13:39:22.458Z,25.15
2017-06-12T13:40:22.489Z,25.18
2017-06-12T13:41:22.520Z,25.32
2017-06-12T13:42:22.244Z,25.45
2017-06-12T13:43:22.274Z,25.62
2017-06-12T13:44:22.611Z,25.69
2017-06-12T13:45:22.633Z,25.83
2017-06-12T13:46:22.664Z,25.55
2017-06-12T13:47:22.693Z,25.73
2017-06-12T13:48:37.344Z,25.36
2017-06-12T13:49:22.752Z,25.47
2017-06-12T13:50:22.781Z,25.62
2017-06-12T13:51:22.810Z,25.65
2017-06-12T13:52:22.537Z,25.69
2017-06-12T13:53:22.886Z,25.4
2017-06-12T13:54:22.592Z,25.27
2017-06-12T13:55:22.926Z,24.88
2017-06-12T13:56:22.655Z,24.96
2017-06-12T13:57:22.983Z,24.99
2017-06-12T13:59:23.044Z,24.71
2017-06-12T14:00:37.692Z,24.88
2017-06-12T14:01:23.100Z,25.09
2017-06-12T14:02:22.829Z,25.2
2017-06-12T14:03:23.160Z,25.15
2017-06-12T14:04:23.190Z,24.77